createdAt,value
2022-10-10T00:01:32.478Z,101287.56
2022-10-10T00:04:01.439Z,101259.59
2022-10-10T00:06:33.051Z,101287.22
2022-10-10T00:09:02.210Z,101294.97
2022-10-10T00:11:30.607Z,101291.06
2022-10-10T00:14:00.725Z,101293.59
2022-10-10T00:16:29.115Z,101296.31
2022-10-10T00:18:57.423Z,101295.63
2022-10-10T00:21:25.682Z,101295.97
2022-10-10T00:23:53.999Z,101298.00
2022-10-10T00:26:22.695Z,101292.28
2022-10-10T00:28:50.937Z,101283.69
2022-10-10T00:31:20.688Z,101282.00
2022-10-10T00:33:49.345Z,101286.78
2022-10-10T00:36:20.566Z,101272.22
2022-10-10T00:38:49.426Z,101261.63
2022-10-10T00:41:17.694Z,101272.59
2022-10-10T00:44:05.133Z,101268.56
2022-10-10T00:46:34.913Z,101285.09
2022-10-10T00:49:05.233Z,101276.66
2022-10-10T00:51:33.846Z,101281.41
2022-10-10T00:54:07.104Z,101281.22
2022-10-10T00:56:41.223Z,101272.47
2022-10-10T00:59:12.661Z,101273.66
2022-10-10T01:01:43.943Z,101280.22
2022-10-10T01:04:34.338Z,101276.84
2022-10-10T01:07:04.220Z,101276.72
2022-10-10T01:09:33.629Z,101278.41
2022-10-10T01:12:14.692Z,101276.72
2022-10-10T01:14:51.078Z,101272.50
2022-10-10T01:17:30.236Z,101272.84
2022-10-10T01:20:22.701Z,101280.28
2022-10-10T01:23:09.139Z,101276.03
2022-10-10T01:25:48.158Z,101281.13
2022-10-10T01:28:35.256Z,101275.72
2022-10-10T01:31:07.443Z,101271.69
2022-10-10T01:33:43.420Z,101269.31
2022-10-10T01:36:20.504Z,101267.63
2022-10-10T01:38:57.506Z,101269.31
2022-10-10T01:41:32.684Z,101259.34
2022-10-10T01:44:02.442Z,101258.00
2022-10-10T01:46:30.639Z,101257.50
2022-10-10T01:49:00.127Z,101252.59
2022-10-10T01:51:46.884Z,101239.78
2022-10-10T01:54:29.580Z,101245.69
2022-10-10T01:57:05.908Z,101248.06
2022-10-10T01:59:47.839Z,101246.34
2022-10-10T02:02:24.741Z,101248.19
2022-10-10T02:05:01.937Z,101224.44
2022-10-10T02:07:34.547Z,101238.59
2022-10-10T02:10:06.208Z,101234.22
2022-10-10T02:12:36.998Z,101237.94
2022-10-10T02:15:11.890Z,101224.09
2022-10-10T02:17:42.202Z,101241.47
2022-10-10T02:20:13.044Z,101238.25
2022-10-10T02:22:44.353Z,101239.28
2022-10-10T02:25:14.675Z,101237.41
2022-10-10T02:27:48.059Z,101237.25
2022-10-10T02:30:19.787Z,101234.53
2022-10-10T02:32:50.633Z,101229.16
2022-10-10T02:35:32.041Z,101228.97
2022-10-10T02:38:03.067Z,101230.16
2022-10-10T02:40:35.662Z,101219.75
2022-10-10T02:43:07.362Z,101237.28
2022-10-10T02:45:37.221Z,101228.50
2022-10-10T02:48:06.579Z,101239.97
2022-10-10T02:50:35.613Z,101234.59
2022-10-10T02:53:03.938Z,101234.59
2022-10-10T02:55:32.227Z,101226.50
2022-10-10T02:58:00.558Z,101235.22
2022-10-10T03:00:28.800Z,101234.03
2022-10-10T03:02:58.446Z,101241.13
2022-10-10T03:05:26.816Z,101236.28
2022-10-10T03:07:55.140Z,101218.25
2022-10-10T03:10:23.467Z,101233.59
2022-10-10T03:12:52.001Z,101225.81
2022-10-10T03:15:20.575Z,101233.25
2022-10-10T03:17:48.842Z,101234.25
2022-10-10T03:20:18.688Z,101235.59
2022-10-10T03:22:46.936Z,101231.91
2022-10-10T03:25:15.244Z,101231.56
2022-10-10T03:27:43.557Z,101242.00
2022-10-10T03:30:13.087Z,101241.00
2022-10-10T03:32:41.627Z,101237.63
2022-10-10T03:35:10.941Z,101236.94
2022-10-10T03:37:40.704Z,101238.63
2022-10-10T03:40:10.610Z,101231.91
2022-10-10T03:42:38.904Z,101242.34
2022-10-10T03:45:07.845Z,101236.44
2022-10-10T03:47:36.200Z,101239.66
2022-10-10T03:50:04.980Z,101238.31
2022-10-10T03:52:33.260Z,101248.94
2022-10-10T03:55:02.987Z,101246.75
2022-10-10T03:57:31.235Z,101252.13
2022-10-10T03:59:59.513Z,101260.22
2022-10-10T04:02:27.723Z,101211.03
2022-10-10T04:04:55.993Z,101252.81
2022-10-10T04:07:24.261Z,101255.00
2022-10-10T04:09:53.883Z,101248.94
2022-10-10T04:12:23.582Z,101248.47
2022-10-10T04:14:51.896Z,101247.44
2022-10-10T04:17:20.170Z,101242.69
2022-10-10T04:19:48.525Z,101253.31
2022-10-10T04:22:17.642Z,101255.69
2022-10-10T04:24:45.905Z,101253.16
2022-10-10T04:27:14.175Z,101250.78
2022-10-10T04:29:43.822Z,101254.84
2022-10-10T04:32:12.071Z,101261.25
2022-10-10T04:34:40.336Z,101254.84
2022-10-10T04:37:08.517Z,101262.94
2022-10-10T04:39:36.776Z,101255.84
2022-10-10T04:42:05.285Z,101260.56
2022-10-10T04:44:33.582Z,101254.50
2022-10-10T04:47:03.249Z,101254.19
2022-10-10T04:49:31.566Z,101259.06
2022-10-10T04:52:00.181Z,101253.16
2022-10-10T04:54:28.661Z,101247.28
2022-10-10T04:56:56.944Z,101248.63
2022-10-10T04:59:25.323Z,101249.63
2022-10-10T05:01:57.062Z,101257.38
2022-10-10T05:04:29.062Z,101248.78
2022-10-10T05:06:57.331Z,101260.25
2022-10-10T05:09:25.740Z,101248.97
2022-10-10T05:11:54.133Z,101252.16
2022-10-10T05:14:22.362Z,101255.03
2022-10-10T05:16:50.995Z,101254.03
2022-10-10T05:19:19.289Z,101255.53
2022-10-10T05:21:49.044Z,101255.38
2022-10-10T05:24:17.311Z,101250.16
2022-10-10T05:26:45.811Z,101252.50
2022-10-10T05:29:14.167Z,101244.22
2022-10-10T05:31:42.448Z,101243.03
2022-10-10T05:34:13.878Z,101241.03
2022-10-10T05:36:42.414Z,101254.97
2022-10-10T05:39:12.273Z,101255.13
2022-10-10T05:41:40.516Z,101258.00
2022-10-10T05:44:09.377Z,101266.94
2022-10-10T05:46:37.567Z,101266.56
2022-10-10T05:49:05.893Z,101259.31
2022-10-10T05:51:34.259Z,101264.34
2022-10-10T05:54:02.598Z,101266.53
2022-10-10T05:56:32.211Z,101273.41
2022-10-10T05:59:00.580Z,101271.38
2022-10-10T06:01:28.960Z,101273.38
2022-10-10T06:03:57.199Z,101280.09
2022-10-10T06:06:26.760Z,101274.72
2022-10-10T06:08:55.933Z,101269.31
2022-10-10T06:11:26.023Z,101276.03
2022-10-10T06:13:55.830Z,101278.75
2022-10-10T06:16:24.782Z,101284.13
2022-10-10T06:18:53.140Z,101283.28
2022-10-10T06:21:21.583Z,101285.81
2022-10-10T06:23:50.243Z,101289.72
2022-10-10T06:26:19.346Z,101285.69
2022-10-10T06:28:47.801Z,101293.59
2022-10-10T06:31:18.012Z,101294.13
2022-10-10T06:33:48.183Z,101296.50
2022-10-10T06:36:17.708Z,101294.66
2022-10-10T06:38:47.180Z,101299.34
2022-10-10T06:41:15.418Z,101303.06
2022-10-10T06:43:43.630Z,101312.16
2022-10-10T06:46:11.952Z,101314.69
2022-10-10T06:48:42.161Z,101319.06
2022-10-10T06:51:14.840Z,101324.44
2022-10-10T06:53:43.596Z,101324.81
2022-10-10T06:56:17.506Z,101325.81
2022-10-10T06:58:46.242Z,101333.09
2022-10-10T07:01:14.688Z,101332.44
2022-10-10T07:03:44.487Z,101334.69
2022-10-10T07:06:13.688Z,101339.91
2022-10-10T07:08:42.152Z,101335.53
2022-10-10T07:11:10.622Z,101349.53
2022-10-10T07:13:39.302Z,101353.59
2022-10-10T07:16:08.230Z,101357.81
2022-10-10T07:18:37.810Z,101341.13
2022-10-10T07:21:07.943Z,101362.72
2022-10-10T07:23:37.058Z,101366.59
2022-10-10T07:26:08.141Z,101370.00
2022-10-10T07:28:36.481Z,101369.00
2022-10-10T07:31:06.655Z,101374.56
2022-10-10T07:33:36.967Z,101376.47
2022-10-10T07:36:08.147Z,101380.63
2022-10-10T07:38:37.067Z,101385.91
2022-10-10T07:41:14.976Z,101385.09
2022-10-10T07:43:43.310Z,101388.06
2022-10-10T07:46:17.020Z,101385.31
2022-10-10T07:48:45.421Z,101389.03
2022-10-10T07:51:15.651Z,101395.47
2022-10-10T07:53:44.399Z,101399.38
2022-10-10T07:56:12.926Z,101398.53
2022-10-10T07:58:41.297Z,101405.78
2022-10-10T08:01:12.013Z,101407.00
2022-10-10T08:03:41.191Z,101405.66
2022-10-10T08:06:11.434Z,101409.38
2022-10-10T08:08:50.508Z,101395.91
2022-10-10T08:11:21.579Z,101384.78
2022-10-10T08:13:50.494Z,101408.53
2022-10-10T08:16:19.158Z,101413.78
2022-10-10T08:18:47.411Z,101408.84
2022-10-10T08:21:16.960Z,101412.03
2022-10-10T08:23:46.871Z,101370.41
2022-10-10T08:26:17.870Z,101414.72
2022-10-10T08:28:48.640Z,101424.16
2022-10-10T08:31:20.227Z,101386.00
2022-10-10T08:33:50.750Z,101424.28
2022-10-10T08:36:21.403Z,101425.25
2022-10-10T08:38:52.775Z,101423.03
2022-10-10T08:41:35.919Z,101414.41
2022-10-10T08:44:12.910Z,101427.72
2022-10-10T08:46:46.000Z,101421.97
2022-10-10T08:49:21.210Z,101422.91
2022-10-10T08:51:59.886Z,101412.75
2022-10-10T08:54:31.058Z,101400.78
2022-10-10T08:57:02.300Z,101413.22
2022-10-10T08:59:34.694Z,101412.72
2022-10-10T09:02:38.289Z,101413.31
2022-10-10T09:05:21.774Z,101418.56
2022-10-10T09:08:26.334Z,101407.38
2022-10-10T09:11:01.057Z,101414.91
2022-10-10T09:13:35.135Z,101393.69
2022-10-10T09:16:07.370Z,101422.91
2022-10-10T09:18:53.392Z,101415.16
2022-10-10T09:21:25.558Z,101416.84
2022-10-10T09:24:01.526Z,101407.44
2022-10-10T09:26:36.999Z,101405.31
2022-10-10T09:29:16.374Z,101409.22
2022-10-10T09:31:49.586Z,101407.94
2022-10-10T09:34:24.203Z,101411.00
2022-10-10T09:36:57.225Z,101415.31
2022-10-10T09:39:38.821Z,101427.47
2022-10-10T09:42:13.138Z,101413.25
2022-10-10T09:44:43.007Z,101414.47
2022-10-10T09:47:14.050Z,101418.03
2022-10-10T09:49:42.877Z,101422.72
2022-10-10T09:52:27.345Z,101423.41
2022-10-10T09:55:00.978Z,101395.94
2022-10-10T09:57:36.788Z,101410.78
2022-10-10T10:00:33.756Z,101413.97
2022-10-10T10:03:13.862Z,101418.63
2022-10-10T10:05:44.980Z,101415.34
2022-10-10T10:08:27.433Z,101420.84
2022-10-10T10:10:58.741Z,101416.72
2022-10-10T10:13:31.722Z,101410.91
2022-10-10T10:16:06.507Z,101399.72
2022-10-10T10:18:41.592Z,101368.84
2022-10-10T10:21:19.383Z,101415.03
2022-10-10T10:23:56.731Z,101411.47
2022-10-10T10:26:28.694Z,101384.59
2022-10-10T10:28:59.495Z,101409.53
2022-10-10T10:31:54.911Z,101405.53
2022-10-10T10:34:38.536Z,101416.44
2022-10-10T10:37:17.877Z,101407.31
2022-10-10T10:40:09.307Z,101403.03
2022-10-10T10:42:51.033Z,101407.91
2022-10-10T10:45:26.962Z,101401.72
2022-10-10T10:48:02.080Z,101406.38
2022-10-10T10:50:44.308Z,101408.91
2022-10-10T10:53:23.434Z,101414.00
2022-10-10T10:56:01.537Z,101398.63
2022-10-10T10:59:10.719Z,101403.66
2022-10-10T11:01:56.065Z,101404.06
2022-10-10T11:05:23.001Z,101406.88
2022-10-10T11:07:49.574Z,101402.63
2022-10-10T11:10:29.726Z,101409.38
2022-10-10T11:13:04.717Z,101404.28
2022-10-10T11:16:04.874Z,101401.06
2022-10-10T11:18:34.004Z,101407.31
2022-10-10T11:21:08.265Z,101402.84
2022-10-10T11:23:42.756Z,101410.34
2022-10-10T11:26:19.395Z,101399.59
2022-10-10T11:28:52.953Z,101358.13
2022-10-10T11:31:26.855Z,101390.91
2022-10-10T11:34:02.392Z,101390.38
2022-10-10T11:36:33.294Z,101389.38
2022-10-10T11:39:05.728Z,101388.56
2022-10-10T11:41:37.613Z,101396.75
2022-10-10T11:44:11.615Z,101387.59
2022-10-10T11:46:44.692Z,101385.75
2022-10-10T11:49:22.585Z,101387.28
2022-10-10T11:52:32.999Z,101381.03
2022-10-10T11:55:07.587Z,101373.28
2022-10-10T11:57:41.687Z,101376.19
2022-10-10T12:00:14.850Z,101369.66
2022-10-10T12:02:44.934Z,101333.72
2022-10-10T12:05:24.007Z,101373.34
2022-10-10T12:08:05.743Z,101366.41
2022-10-10T12:10:38.918Z,101362.25
2022-10-10T12:13:29.431Z,101360.25
2022-10-10T12:16:02.987Z,101351.50
2022-10-10T12:18:39.671Z,101350.09
2022-10-10T12:21:11.582Z,101350.69
2022-10-10T12:23:43.041Z,101344.38
2022-10-10T12:26:18.653Z,101347.69
2022-10-10T12:29:03.253Z,101332.59
2022-10-10T12:31:38.587Z,101331.34
2022-10-10T12:34:17.939Z,101311.13
2022-10-10T12:37:22.265Z,101337.00
2022-10-10T12:40:23.435Z,101327.56
2022-10-10T12:43:16.998Z,101334.72
2022-10-10T12:46:08.182Z,101227.88
2022-10-10T12:48:37.355Z,101327.28
2022-10-10T12:51:06.151Z,101326.47
2022-10-10T12:53:35.718Z,101325.84
2022-10-10T12:56:05.672Z,101327.72
2022-10-10T12:58:38.724Z,101324.81
2022-10-10T13:01:10.966Z,101314.34
2022-10-10T13:03:43.895Z,101285.41
2022-10-10T13:06:35.520Z,101280.38
2022-10-10T13:09:09.192Z,101308.25
2022-10-10T13:11:57.512Z,101309.31
2022-10-10T13:14:27.699Z,101309.09
2022-10-10T13:16:56.106Z,101303.22
2022-10-10T13:19:25.802Z,101299.66
2022-10-10T13:21:56.178Z,101259.19
2022-10-10T13:24:30.037Z,101298.81
2022-10-10T13:27:00.080Z,101295.69
2022-10-10T13:29:32.571Z,101257.53
2022-10-10T13:32:03.466Z,101298.63
2022-10-10T13:34:35.448Z,101296.94
2022-10-10T13:37:06.439Z,101290.84
2022-10-10T13:39:38.411Z,101287.09
2022-10-10T13:42:12.656Z,101297.13
2022-10-10T13:44:52.960Z,101298.19
2022-10-10T13:47:54.410Z,101291.28
2022-10-10T13:50:26.875Z,101290.22
2022-10-10T13:53:24.431Z,101295.47
2022-10-10T13:55:59.735Z,101291.69
2022-10-10T13:58:31.971Z,101296.91
2022-10-10T14:01:03.482Z,101289.34
2022-10-10T14:03:34.233Z,101289.13
2022-10-10T14:06:02.646Z,101296.06
2022-10-10T14:08:34.828Z,101290.59
2022-10-10T14:11:06.968Z,101284.94
2022-10-10T14:13:39.469Z,101275.50
2022-10-10T14:16:13.290Z,101292.47
2022-10-10T14:18:41.658Z,101288.69
2022-10-10T14:21:11.091Z,101284.69
2022-10-10T14:23:39.792Z,101281.97
2022-10-10T14:26:12.872Z,101293.72
2022-10-10T14:28:42.870Z,101278.00
2022-10-10T14:31:11.414Z,101289.31
2022-10-10T14:33:39.987Z,101287.44
2022-10-10T14:36:08.521Z,101288.47
2022-10-10T14:38:36.714Z,101288.91
2022-10-10T14:41:05.477Z,101293.72
2022-10-10T14:43:34.127Z,101293.94
2022-10-10T14:46:03.848Z,101294.16
2022-10-10T14:48:32.141Z,101283.88
2022-10-10T14:51:00.699Z,101303.81
2022-10-10T14:54:12.226Z,101293.13
2022-10-10T14:57:06.857Z,101304.88
2022-10-10T14:59:47.260Z,101297.94
2022-10-10T15:02:14.825Z,101304.06
2022-10-10T15:04:43.026Z,101300.72
2022-10-10T15:07:14.288Z,101308.03
2022-10-10T15:10:02.492Z,101309.31
2022-10-10T15:12:32.863Z,101312.66
2022-10-10T15:15:01.159Z,101309.94
2022-10-10T15:17:33.838Z,101308.47
2022-10-10T15:20:02.254Z,101305.53
2022-10-10T15:22:31.139Z,101307.81
2022-10-10T15:24:59.562Z,101307.41
2022-10-10T15:27:28.647Z,101309.06
2022-10-10T15:29:57.115Z,101313.03
2022-10-10T15:32:25.578Z,101308.22
2022-10-10T15:34:55.388Z,101309.72
2022-10-10T15:37:25.854Z,101299.66
2022-10-10T15:39:54.394Z,101303.81
2022-10-10T15:45:11.943Z,101309.03
2022-10-10T15:47:46.218Z,101309.66
2022-10-10T15:50:16.356Z,101308.38
2022-10-10T15:52:44.855Z,101313.41
2022-10-10T15:55:13.254Z,101310.22
2022-10-10T15:57:41.532Z,101305.38
2022-10-10T15:59:17.722Z,101316.59
2022-10-10T16:00:10.450Z,101307.06
2022-10-10T16:02:41.488Z,101307.88
2022-10-10T16:05:11.359Z,101309.13
2022-10-10T16:07:47.572Z,101312.66
2022-10-10T16:10:17.055Z,101313.84
2022-10-10T16:12:45.280Z,101306.72
2022-10-10T16:15:13.886Z,101311.09
2022-10-10T16:17:42.141Z,101307.09
2022-10-10T16:20:11.315Z,101317.09
2022-10-10T16:22:40.973Z,101312.28
2022-10-10T16:25:21.843Z,101310.16
2022-10-10T16:27:51.979Z,101307.59
2022-10-10T16:30:21.136Z,101312.97
2022-10-10T16:32:49.653Z,101315.44
2022-10-10T16:35:17.958Z,101312.06
2022-10-10T16:37:47.653Z,101309.47
2022-10-10T16:40:15.934Z,101315.06
2022-10-10T16:42:44.241Z,101319.63
2022-10-10T16:45:12.884Z,101314.97
2022-10-10T16:47:41.106Z,101316.78
2022-10-10T16:50:10.185Z,101317.56
2022-10-10T16:52:38.648Z,101317.09
2022-10-10T16:55:11.318Z,101319.91
2022-10-10T16:57:41.131Z,101278.78
2022-10-10T17:00:10.884Z,101325.31
2022-10-10T17:02:42.402Z,101332.94
2022-10-10T17:05:11.047Z,101331.16
2022-10-10T17:07:39.301Z,101325.31
2022-10-10T17:10:10.180Z,101327.47
2022-10-10T17:12:38.521Z,101334.41
2022-10-10T17:15:07.728Z,101336.22
2022-10-10T17:17:36.836Z,101353.25
2022-10-10T17:20:06.685Z,101350.41
2022-10-10T17:22:35.298Z,101352.00
2022-10-10T17:25:03.676Z,101356.75
2022-10-10T17:27:35.162Z,101353.81
2022-10-10T17:30:03.467Z,101360.69
2022-10-10T17:32:31.695Z,101360.78
2022-10-10T17:34:59.998Z,101359.38
2022-10-10T17:37:28.553Z,101367.78
2022-10-10T17:39:56.973Z,101374.94
2022-10-10T17:42:25.221Z,101384.19
2022-10-10T17:44:56.909Z,101389.84
2022-10-10T17:47:25.244Z,101390.41
2022-10-10T17:49:53.500Z,101400.78
2022-10-10T17:52:21.979Z,101395.91
2022-10-10T17:54:50.610Z,101407.81
2022-10-10T17:57:19.131Z,101413.44
2022-10-10T17:59:47.328Z,101410.63
2022-10-10T18:02:18.911Z,101402.88
2022-10-10T18:04:47.771Z,101409.34
2022-10-10T18:07:16.364Z,101407.00
2022-10-10T18:09:44.718Z,101409.88
2022-10-10T18:12:13.317Z,101406.66
2022-10-10T18:14:41.620Z,101413.78
2022-10-10T18:17:10.006Z,101419.25
2022-10-10T18:19:39.906Z,101410.16
2022-10-10T18:22:08.350Z,101423.34
2022-10-10T18:24:36.791Z,101428.25
2022-10-10T18:27:05.179Z,101424.06
2022-10-10T18:29:33.445Z,101423.06
2022-10-10T18:32:01.791Z,101419.34
2022-10-10T18:34:30.022Z,101422.25
2022-10-10T18:36:59.767Z,101420.44
2022-10-10T18:39:32.928Z,101426.19
2022-10-10T18:42:01.575Z,101429.91
2022-10-10T18:44:29.755Z,101438.69
2022-10-10T18:46:58.413Z,101437.50
2022-10-10T18:49:26.601Z,101438.03
2022-10-10T18:51:55.077Z,101431.97
2022-10-10T18:54:27.241Z,101433.81
2022-10-10T18:56:55.566Z,101437.69
2022-10-10T18:59:23.895Z,101436.00
2022-10-10T19:01:53.464Z,101437.06
2022-10-10T19:04:22.305Z,101438.22
2022-10-10T19:06:56.161Z,101443.13
2022-10-10T19:09:27.416Z,101451.06
2022-10-10T19:11:55.710Z,101446.16
2022-10-10T19:14:23.961Z,101440.09
2022-10-10T19:16:53.364Z,101444.13
2022-10-10T19:19:22.112Z,101449.69
2022-10-10T19:21:51.630Z,101450.81
2022-10-10T19:24:21.485Z,101447.63
2022-10-10T19:26:54.957Z,101449.13
2022-10-10T19:29:23.813Z,101448.59
2022-10-10T19:31:52.983Z,101451.63
2022-10-10T19:34:21.378Z,101451.28
2022-10-10T19:36:49.672Z,101455.50
2022-10-10T19:39:17.976Z,101448.06
2022-10-10T19:41:46.235Z,101450.09
2022-10-10T19:44:15.913Z,101449.91
2022-10-10T19:46:44.121Z,101453.94
2022-10-10T19:49:12.859Z,101453.28
2022-10-10T19:51:41.022Z,101455.78
2022-10-10T19:54:09.332Z,101454.06
2022-10-10T19:56:37.497Z,101462.28
2022-10-10T19:59:06.023Z,101428.19
2022-10-10T20:01:35.742Z,101470.91
2022-10-10T20:04:04.158Z,101466.66
2022-10-10T20:06:32.470Z,101466.63
2022-10-10T20:09:00.718Z,101451.53
2022-10-10T20:11:29.185Z,101471.44
2022-10-10T20:13:58.438Z,101475.16
2022-10-10T20:16:27.812Z,101473.28
2022-10-10T20:18:59.662Z,101476.63
2022-10-10T20:21:31.781Z,101478.09
2022-10-10T20:24:03.841Z,101445.31
2022-10-10T20:26:32.702Z,101478.38
2022-10-10T20:29:01.544Z,101374.53
2022-10-10T20:31:32.639Z,101457.66
2022-10-10T20:34:07.577Z,101492.97
2022-10-10T20:36:39.353Z,101490.09
2022-10-10T20:39:10.787Z,101505.97
2022-10-10T20:41:43.119Z,101475.84
2022-10-10T20:44:14.633Z,101504.81
2022-10-10T20:46:44.932Z,101498.75
2022-10-10T20:49:17.628Z,101505.66
2022-10-10T20:51:48.899Z,101505.97
2022-10-10T20:54:18.947Z,101506.31
2022-10-10T20:56:49.387Z,101505.47
2022-10-10T20:59:18.625Z,101509.31
2022-10-10T21:01:47.516Z,101509.41
2022-10-10T21:04:17.934Z,101514.41
2022-10-10T21:06:46.801Z,101514.88
2022-10-10T21:09:16.602Z,101517.00
2022-10-10T21:11:48.664Z,101516.66
2022-10-10T21:14:19.689Z,101520.34
2022-10-10T21:16:50.723Z,101525.19
2022-10-10T21:19:22.106Z,101529.56
2022-10-10T21:21:50.869Z,101529.34
2022-10-10T21:24:19.725Z,101532.34
2022-10-10T21:26:50.599Z,101532.34
2022-10-10T21:29:19.811Z,101526.41
2022-10-10T21:31:48.502Z,101530.94
2022-10-10T21:34:19.184Z,101527.88
2022-10-10T21:36:49.597Z,101527.03
2022-10-10T21:39:18.432Z,101540.91
2022-10-10T21:41:47.438Z,101532.44
2022-10-10T21:44:16.929Z,101532.59
2022-10-10T21:46:45.726Z,101531.91
2022-10-10T21:49:14.599Z,101534.75
2022-10-10T21:51:45.759Z,101534.44
2022-10-10T21:54:16.498Z,101532.75
2022-10-10T21:56:45.383Z,101529.91
2022-10-10T21:59:14.388Z,101537.28
2022-10-10T22:01:44.698Z,101545.50
2022-10-10T22:04:13.466Z,101542.66
2022-10-10T22:06:42.952Z,101538.81
2022-10-10T22:09:11.663Z,101545.06
2022-10-10T22:11:41.948Z,101544.50
2022-10-10T22:14:10.702Z,101547.78
2022-10-10T22:16:39.351Z,101545.09
2022-10-10T22:19:08.733Z,101538.72
2022-10-10T22:21:38.299Z,101538.44
2022-10-10T22:24:09.140Z,101509.66
2022-10-10T22:26:38.695Z,101541.13
2022-10-10T22:29:09.780Z,101550.63
2022-10-10T22:31:38.659Z,101541.00
2022-10-10T22:34:08.286Z,101540.31
2022-10-10T22:36:37.152Z,101537.97
2022-10-10T22:39:07.468Z,101537.13
2022-10-10T22:41:36.278Z,101531.88
2022-10-10T22:44:05.410Z,101540.25
2022-10-10T22:46:35.678Z,101533.16
2022-10-10T22:49:04.545Z,101530.78
2022-10-10T22:51:33.413Z,101532.91
2022-10-10T22:54:02.176Z,101537.44
2022-10-10T22:56:30.915Z,101531.06
2022-10-10T22:58:59.925Z,101531.63
2022-10-10T23:01:28.698Z,101526.09
2022-10-10T23:04:03.611Z,101502.84
2022-10-10T23:06:32.306Z,101517.47
2022-10-10T23:09:01.049Z,101530.63
2022-10-10T23:11:29.813Z,101522.56
2022-10-10T23:13:58.545Z,101524.09
2022-10-10T23:16:27.281Z,101522.13
2022-10-10T23:18:56.067Z,101526.34
2022-10-10T23:21:26.288Z,101522.34
2022-10-10T23:23:56.190Z,101523.19
2022-10-10T23:26:24.859Z,101516.09
2022-10-10T23:28:53.772Z,101525.03
2022-10-10T23:31:22.584Z,101529.88
2022-10-10T23:33:51.386Z,101528.63
2022-10-10T23:36:20.139Z,101530.47
2022-10-10T23:38:51.456Z,101522.72
2022-10-10T23:41:20.410Z,101480.53
2022-10-10T23:43:49.293Z,101523.31
2022-10-10T23:46:18.064Z,101522.91
2022-10-10T23:48:49.019Z,101518.66
2022-10-10T23:51:18.227Z,101525.03
2022-10-10T23:53:47.015Z,101516.75
2022-10-10T23:56:17.209Z,101521.41
2022-10-10T23:58:45.981Z,101515.63
